Terminal Aerodrome Forecast
Issued by NWS

Home | Current Version | Previous Version | Text Only | Print | Product List | Glossary On
Versions: 1 2 3 4 5 6 7 8 9 10 11 12 13 14 15 16
000
FTUS44 KLIX 240539
TAFMCB
TAF
KMCB 240539Z 2406/2506 14004KT 6SM BR FEW015 SCT250
      TEMPO 2408/2412 4SM BR SCT015
     FM241200 11005KT 4SM BR BKN015
     FM241400 12007KT P6SM BKN025
     FM241700 15014G21KT P6SM VCTS BKN035CB=

USA.gov is the U.S. government's official web portal to all federal, state and local government web resources and services.